sensor_id;sensor_type;location;lat;lon;timestamp;pressure;altitude;pressure_sealevel;temperature;humidity
69667;BME280;66534;52.370;4.832;2023-02-02T00:00:00;102100.28;;;7.88;100.00
69667;BME280;66534;52.370;4.832;2023-02-02T00:00:30;102109.06;;;7.84;100.00
69667;BME280;66534;52.370;4.832;2023-02-02T00:01:01;102103.81;;;7.84;100.00
69667;BME280;66534;52.370;4.832;2023-02-02T00:01:36;102100.25;;;7.90;100.00
69667;BME280;66534;52.370;4.832;2023-02-02T00:02:07;102106.31;;;7.93;100.00
69667;BME280;66534;52.370;4.832;2023-02-02T00:02:37;102097.66;;;7.90;100.00
69667;BME280;66534;52.370;4.832;2023-02-02T00:03:07;102107.13;;;7.97;100.00
69667;BME280;66534;52.370;4.832;2023-02-02T00:03:39;102108.88;;;7.99;100.00
69667;BME280;66534;52.370;4.832;2023-02-02T00:04:14;102120.19;;;8.00;100.00
69667;BME280;66534;52.370;4.832;2023-02-02T00:04:49;102110.69;;;7.94;100.00
69667;BME280;66534;52.370;4.832;2023-02-02T00:05:19;102110.72;;;7.91;100.00
69667;BME280;66534;52.370;4.832;2023-02-02T00:05:50;102106.38;;;7.89;100.00
69667;BME280;66534;52.370;4.832;2023-02-02T00:06:22;102104.69;;;7.85;100.00
69667;BME280;66534;52.370;4.832;2023-02-02T00:06:54;102108.09;;;7.90;100.00
69667;BME280;66534;52.370;4.832;2023-02-02T00:07:28;102120.44;;;7.82;100.00
69667;BME280;66534;52.370;4.832;2023-02-02T00:07:58;102114.25;;;7.87;100.00
69667;BME280;66534;52.370;4.832;2023-02-02T00:08:29;102112.47;;;7.91;100.00
69667;BME280;66534;52.370;4.832;2023-02-02T00:09:00;102115.06;;;7.91;100.00
69667;BME280;66534;52.370;4.832;2023-02-02T00:09:32;102115.06;;;7.91;100.00
69667;BME280;66534;52.370;4.832;2023-02-02T00:10:03;102116.03;;;7.84;100.00
69667;BME280;66534;52.370;4.832;2023-02-02T00:10:33;102121.28;;;7.82;100.00
69667;BME280;66534;52.370;4.832;2023-02-02T00:11:04;102119.56;;;7.80;100.00
69667;BME280;66534;52.370;4.832;2023-02-02T00:11:35;102118.66;;;7.81;100.00
69667;BME280;66534;52.370;4.832;2023-02-02T00:12:05;102123.03;;;7.82;100.00
69667;BME280;66534;52.370;4.832;2023-02-02T00:12:36;102119.59;;;7.78;100.00
69667;BME280;66534;52.370;4.832;2023-02-02T00:13:06;102124.78;;;7.80;100.00
69667;BME280;66534;52.370;4.832;2023-02-02T00:13:37;102129.25;;;7.71;100.00
69667;BME280;66534;52.370;4.832;2023-02-02T00:14:08;102121.38;;;7.73;100.00
69667;BME280;66534;52.370;4.832;2023-02-02T00:14:39;102123.97;;;7.73;100.00
69667;BME280;66534;52.370;4.832;2023-02-02T00:15:10;102125.78;;;7.68;100.00
69667;BME280;66534;52.370;4.832;2023-02-02T00:15:40;102118.06;;;7.62;100.00
69667;BME280;66534;52.370;4.832;2023-02-02T00:16:59;102139.13;;;7.45;100.00
69667;BME280;66534;52.370;4.832;2023-02-02T00:17:30;102127.06;;;7.33;100.00
69667;BME280;66534;52.370;4.832;2023-02-02T00:18:00;102130.63;;;7.24;100.00
69667;BME280;66534;52.370;4.832;2023-02-02T00:18:31;102134.16;;;7.19;100.00
69667;BME280;66534;52.370;4.832;2023-02-02T00:19:06;102134.19;;;7.16;100.00
69667;BME280;66534;52.370;4.832;2023-02-02T00:19:38;102135.09;;;7.15;100.00
69667;BME280;66534;52.370;4.832;2023-02-02T00:20:09;102130.75;;;7.12;100.00
69667;BME280;66534;52.370;4.832;2023-02-02T00:20:39;102129.97;;;7.04;100.00
69667;BME280;66534;52.370;4.832;2023-02-02T00:21:10;102127.41;;;6.99;100.00
69667;BME280;66534;52.370;4.832;2023-02-02T00:21:40;102133.47;;;7.00;100.00
69667;BME280;66534;52.370;4.832;2023-02-02T00:22:11;102132.56;;;7.04;100.00
69667;BME280;66534;52.370;4.832;2023-02-02T00:22:42;102130.84;;;7.03;100.00
69667;BME280;66534;52.370;4.832;2023-02-02T00:23:12;102136.09;;;7.00;100.00
69667;BME280;66534;52.370;4.832;2023-02-02T00:23:43;102137.81;;;6.99;100.00
69667;BME280;66534;52.370;4.832;2023-02-02T00:24:15;102142.13;;;7.02;100.00
69667;BME280;66534;52.370;4.832;2023-02-02T00:24:49;102136.97;;;6.99;100.00
69667;BME280;66534;52.370;4.832;2023-02-02T00:25:20;102134.38;;;6.96;100.00
69667;BME280;66534;52.370;4.832;2023-02-02T00:25:50;102137.00;;;6.94;100.00
69667;BME280;66534;52.370;4.832;2023-02-02T00:26:21;102142.22;;;6.93;100.00
69667;BME280;66534;52.370;4.832;2023-02-02T00:26:52;102135.31;;;6.90;100.00
69667;BME280;66534;52.370;4.832;2023-02-02T00:27:25;102143.13;;;6.89;100.00
69667;BME280;66534;52.370;4.832;2023-02-02T00:27:55;102137.97;;;6.86;100.00
69667;BME280;66534;52.370;4.832;2023-02-02T00:28:25;102146.63;;;6.85;100.00
69667;BME280;66534;52.370;4.832;2023-02-02T00:28:56;102137.09;;;6.84;100.00
69667;BME280;66534;52.370;4.832;2023-02-02T00:29:27;102149.25;;;6.86;100.00
69667;BME280;66534;52.370;4.832;2023-02-02T00:29:59;102132.78;;;6.80;100.00
69667;BME280;66534;52.370;4.832;2023-02-02T00:30:30;102149.31;;;6.76;100.00
69667;BME280;66534;52.370;4.832;2023-02-02T00:31:00;102137.19;;;6.73;100.00
69667;BME280;66534;52.370;4.832;2023-02-02T00:31:31;102139.78;;;6.74;100.00
69667;BME280;66534;52.370;4.832;2023-02-02T00:32:02;102144.09;;;6.76;100.00
69667;BME280;66534;52.370;4.832;2023-02-02T00:32:32;102142.38;;;6.74;100.00
69667;BME280;66534;52.370;4.832;2023-02-02T00:33:03;102140.69;;;6.69;100.00
69667;BME280;66534;52.370;4.832;2023-02-02T00:33:33;102144.16;;;6.68;100.00
69667;BME280;66534;52.370;4.832;2023-02-02T00:34:03;102149.38;;;6.68;100.00
69667;BME280;66534;52.370;4.832;2023-02-02T00:34:34;102138.13;;;6.63;100.00
69667;BME280;66534;52.370;4.832;2023-02-02T00:35:04;102145.94;;;6.66;100.00
69667;BME280;66534;52.370;4.832;2023-02-02T00:35:38;102143.31;;;6.64;100.00
69667;BME280;66534;52.370;4.832;2023-02-02T00:36:09;102144.19;;;6.66;100.00
69667;BME280;66534;52.370;4.832;2023-02-02T00:36:40;102136.38;;;6.63;100.00
69667;BME280;66534;52.370;4.832;2023-02-02T00:37:11;102138.09;;;6.64;100.00
69667;BME280;66534;52.370;4.832;2023-02-02T00:37:41;102139.84;;;6.65;100.00
69667;BME280;66534;52.370;4.832;2023-02-02T00:38:12;102134.63;;;6.67;100.00
69667;BME280;66534;52.370;4.832;2023-02-02T00:38:42;102139.81;;;6.68;100.00
69667;BME280;66534;52.370;4.832;2023-02-02T00:39:13;102138.03;;;6.75;100.00
69667;BME280;66534;52.370;4.832;2023-02-02T00:39:47;102133.69;;;6.74;100.00
69667;BME280;66534;52.370;4.832;2023-02-02T00:40:17;102141.53;;;6.74;100.00
69667;BME280;66534;52.370;4.832;2023-02-02T00:40:48;102129.31;;;6.76;100.00
69667;BME280;66534;52.370;4.832;2023-02-02T00:41:18;102140.63;;;6.77;100.00
69667;BME280;66534;52.370;4.832;2023-02-02T00:41:49;102129.31;;;6.79;100.00
69667;BME280;66534;52.370;4.832;2023-02-02T00:42:19;102131.00;;;6.83;100.00
69667;BME280;66534;52.370;4.832;2023-02-02T00:42:50;102135.38;;;6.83;100.00
69667;BME280;66534;52.370;4.832;2023-02-02T00:43:20;102136.25;;;6.82;100.00
69667;BME280;66534;52.370;4.832;2023-02-02T00:43:51;102135.34;;;6.86;100.00
69667;BME280;66534;52.370;4.832;2023-02-02T00:44:40;102125.84;;;6.79;100.00
69667;BME280;66534;52.370;4.832;2023-02-02T00:45:29;102137.06;;;6.85;100.00
69667;BME280;66534;52.370;4.832;2023-02-02T00:46:00;102134.53;;;6.76;100.00
69667;BME280;66534;52.370;4.832;2023-02-02T00:46:30;102139.81;;;6.70;100.00
69667;BME280;66534;52.370;4.832;2023-02-02T00:47:01;102132.91;;;6.66;100.00
69667;BME280;66534;52.370;4.832;2023-02-02T00:47:32;102138.94;;;6.68;100.00
69667;BME280;66534;52.370;4.832;2023-02-02T00:48:02;102133.78;;;6.63;100.00
69667;BME280;66534;52.370;4.832;2023-02-02T00:48:33;102147.69;;;6.62;100.00
69667;BME280;66534;52.370;4.832;2023-02-02T00:49:03;102143.31;;;6.67;100.00
69667;BME280;66534;52.370;4.832;2023-02-02T00:49:34;102136.44;;;6.57;100.00
69667;BME280;66534;52.370;4.832;2023-02-02T00:50:05;102134.69;;;6.58;100.00
69667;BME280;66534;52.370;4.832;2023-02-02T00:50:35;102134.63;;;6.67;100.00
69667;BME280;66534;52.370;4.832;2023-02-02T00:51:06;102137.22;;;6.67;100.00
69667;BME280;66534;52.370;4.832;2023-02-02T00:51:36;102125.97;;;6.60;100.00
69667;BME280;66534;52.370;4.832;2023-02-02T00:52:07;102143.34;;;6.60;100.00
69667;BME280;66534;52.370;4.832;2023-02-02T00:52:38;102138.19;;;6.57;100.00
69667;BME280;66534;52.370;4.832;2023-02-02T00:53:08;102137.28;;;6.58;100.00
69667;BME280;66534;52.370;4.832;2023-02-02T00:53:38;102138.97;;;6.63;100.00
69667;BME280;66534;52.370;4.832;2023-02-02T00:54:09;102138.94;;;6.71;100.00
69667;BME280;66534;52.370;4.832;2023-02-02T00:54:39;102141.59;;;6.65;100.00
69667;BME280;66534;52.370;4.832;2023-02-02T00:55:10;102135.50;;;6.63;100.00
69667;BME280;66534;52.370;4.832;2023-02-02T00:55:42;102146.88;;;6.57;100.00
69667;BME280;66534;52.370;4.832;2023-02-02T00:56:12;102136.38;;;6.60;100.00
69667;BME280;66534;52.370;4.832;2023-02-02T00:56:43;102134.63;;;6.64;100.00
69667;BME280;66534;52.370;4.832;2023-02-02T00:57:13;102139.81;;;6.70;100.00
69667;BME280;66534;52.370;4.832;2023-02-02T00:57:44;102136.38;;;6.60;100.00
69667;BME280;66534;52.370;4.832;2023-02-02T00:58:15;102143.31;;;6.67;100.00
69667;BME280;66534;52.370;4.832;2023-02-02T00:58:45;102138.16;;;6.58;100.00
69667;BME280;66534;52.370;4.832;2023-02-02T00:59:15;102141.66;;;6.57;100.00
69667;BME280;66534;52.370;4.832;2023-02-02T00:59:46;102141.66;;;6.54;100.00
69667;BME280;66534;52.370;4.832;2023-02-02T01:00:17;102138.22;;;6.51;100.00
69667;BME280;66534;52.370;4.832;2023-02-02T01:00:50;102138.13;;;6.60;100.00
69667;BME280;66534;52.370;4.832;2023-02-02T01:01:21;102132.91;;;6.66;100.00
69667;BME280;66534;52.370;4.832;2023-02-02T01:01:52;102133.75;;;6.69;100.00
69667;BME280;66534;52.370;4.832;2023-02-02T01:02:22;102129.34;;;6.74;100.00
69667;BME280;66534;52.370;4.832;2023-02-02T01:02:53;102126.75;;;6.73;100.00
69667;BME280;66534;52.370;4.832;2023-02-02T01:03:24;102138.91;;;6.74;100.00
69667;BME280;66534;52.370;4.832;2023-02-02T01:03:55;102136.34;;;6.68;100.00
69667;BME280;66534;52.370;4.832;2023-02-02T01:04:25;102132.00;;;6.67;100.00
69667;BME280;66534;52.370;4.832;2023-02-02T01:04:55;102135.50;;;6.66;100.00
69667;BME280;66534;52.370;4.832;2023-02-02T01:05:26;102137.22;;;6.67;100.00
69667;BME280;66534;52.370;4.832;2023-02-02T01:05:56;102123.31;;;6.69;100.00
69667;BME280;66534;52.370;4.832;2023-02-02T01:06:27;102123.25;;;6.72;100.00
69667;BME280;66534;52.370;4.832;2023-02-02T01:06:57;102136.34;;;6.68;100.00
69667;BME280;66534;52.370;4.832;2023-02-02T01:07:28;102133.78;;;6.60;100.00
69667;BME280;66534;52.370;4.832;2023-02-02T01:07:58;102132.91;;;6.60;100.00
69667;BME280;66534;52.370;4.832;2023-02-02T01:08:29;102136.38;;;6.65;100.00
69667;BME280;66534;52.370;4.832;2023-02-02T01:08:59;102130.34;;;6.57;100.00
69667;BME280;66534;52.370;4.832;2023-02-02T01:09:30;102145.94;;;6.66;100.00
69667;BME280;66534;52.370;4.832;2023-02-02T01:10:00;102132.00;;;6.70;100.00
69667;BME280;66534;52.370;4.832;2023-02-02T01:10:31;102131.13;;;6.69;100.00
69667;BME280;66534;52.370;4.832;2023-02-02T01:11:03;102130.31;;;6.63;100.00
69667;BME280;66534;52.370;4.832;2023-02-02T01:11:33;102131.06;;;6.76;100.00
69667;BME280;66534;52.370;4.832;2023-02-02T01:12:04;102138.91;;;6.72;100.00
69667;BME280;66534;52.370;4.832;2023-02-02T01:12:34;102129.41;;;6.65;100.00
69667;BME280;66534;52.370;4.832;2023-02-02T01:13:05;102131.97;;;6.71;100.00
69667;BME280;66534;52.370;4.832;2023-02-02T01:13:35;102131.06;;;6.76;100.00
69667;BME280;66534;52.370;4.832;2023-02-02T01:14:06;102121.53;;;6.73;100.00
69667;BME280;66534;52.370;4.832;2023-02-02T01:14:36;102128.50;;;6.71;100.00
69667;BME280;66534;52.370;4.832;2023-02-02T01:15:07;102123.25;;;6.72;100.00
69667;BME280;66534;52.370;4.832;2023-02-02T01:15:38;102120.56;;;6.83;100.00
69667;BME280;66534;52.370;4.832;2023-02-02T01:16:09;102122.22;;;6.93;100.00
69667;BME280;66534;52.370;4.832;2023-02-02T01:16:40;102125.78;;;6.83;100.00
69667;BME280;66534;52.370;4.832;2023-02-02T01:17:10;102119.72;;;6.83;100.00
69667;BME280;66534;52.370;4.832;2023-02-02T01:17:41;102117.09;;;6.81;100.00
69667;BME280;66534;52.370;4.832;2023-02-02T01:18:12;102119.72;;;6.83;100.00
69667;BME280;66534;52.370;4.832;2023-02-02T01:18:42;102116.16;;;6.91;100.00
69667;BME280;66534;52.370;4.832;2023-02-02T01:19:13;102124.00;;;6.91;100.00
69667;BME280;66534;52.370;4.832;2023-02-02T01:19:44;102127.47;;;6.90;100.00
69667;BME280;66534;52.370;4.832;2023-02-02T01:20:16;102120.56;;;6.83;100.00
69667;BME280;66534;52.370;4.832;2023-02-02T01:20:55;102127.47;;;6.89;100.00
69667;BME280;66534;52.370;4.832;2023-02-02T01:21:43;102124.94;;;6.81;100.00
69667;BME280;66534;52.370;4.832;2023-02-02T01:22:14;102124.09;;;6.79;100.00
69667;BME280;66534;52.370;4.832;2023-02-02T01:22:45;102122.34;;;6.80;100.00
69667;BME280;66534;52.370;4.832;2023-02-02T01:23:16;102117.97;;;6.83;100.00
69667;BME280;66534;52.370;4.832;2023-02-02T01:23:46;102126.63;;;6.88;100.00
69667;BME280;66534;52.370;4.832;2023-02-02T01:24:17;102124.84;;;6.92;100.00
69667;BME280;66534;52.370;4.832;2023-02-02T01:24:47;102124.00;;;6.91;100.00
69667;BME280;66534;52.370;4.832;2023-02-02T01:25:18;102123.09;;;6.94;100.00
69667;BME280;66534;52.370;4.832;2023-02-02T01:25:59;102122.25;;;6.89;100.00
69667;BME280;66534;52.370;4.832;2023-02-02T01:26:31;102123.09;;;6.92;100.00
69667;BME280;66534;52.370;4.832;2023-02-02T01:27:01;102124.81;;;6.96;100.00
69667;BME280;66534;52.370;4.832;2023-02-02T01:27:31;102126.56;;;6.94;100.00
69667;BME280;66534;52.370;4.832;2023-02-02T01:28:02;102124.88;;;6.90;100.00
69667;BME280;66534;52.370;4.832;2023-02-02T01:28:32;102124.00;;;6.91;100.00
69667;BME280;66534;52.370;4.832;2023-02-02T01:29:03;102136.06;;;7.02;100.00
69667;BME280;66534;52.370;4.832;2023-02-02T01:29:34;102128.31;;;6.95;100.00
69667;BME280;66534;52.370;4.832;2023-02-02T01:30:04;102130.94;;;6.92;100.00
69667;BME280;66534;52.370;4.832;2023-02-02T01:30:35;102124.81;;;6.96;100.00
69667;BME280;66534;52.370;4.832;2023-02-02T01:31:10;102130.88;;;6.97;100.00
69667;BME280;66534;52.370;4.832;2023-02-02T01:31:45;102132.53;;;7.07;100.00
69667;BME280;66534;52.370;4.832;2023-02-02T01:32:16;102123.84;;;7.07;100.00
69667;BME280;66534;52.370;4.832;2023-02-02T01:32:46;102130.84;;;7.03;100.00
69667;BME280;66534;52.370;4.832;2023-02-02T01:33:17;102129.97;;;7.04;100.00
69667;BME280;66534;52.370;4.832;2023-02-02T01:33:48;102132.63;;;6.96;100.00
69667;BME280;66534;52.370;4.832;2023-02-02T01:34:19;102126.56;;;6.93;100.00
69667;BME280;66534;52.370;4.832;2023-02-02T01:34:49;102129.19;;;6.94;100.00
69667;BME280;66534;52.370;4.832;2023-02-02T01:35:20;102128.31;;;6.95;100.00
69667;BME280;66534;52.370;4.832;2023-02-02T01:35:51;102131.69;;;7.02;100.00
69667;BME280;66534;52.370;4.832;2023-02-02T01:36:23;102129.88;;;7.10;100.00
69667;BME280;66534;52.370;4.832;2023-02-02T01:36:54;102129.00;;;7.13;100.00
69667;BME280;66534;52.370;4.832;2023-02-02T01:37:24;102123.00;;;7.05;100.00
69667;BME280;66534;52.370;4.832;2023-02-02T01:37:55;102122.09;;;7.06;100.00
69667;BME280;66534;52.370;4.832;2023-02-02T01:38:25;102123.00;;;7.05;100.00
69667;BME280;66534;52.370;4.832;2023-02-02T01:38:55;102126.47;;;7.07;100.00
69667;BME280;66534;52.370;4.832;2023-02-02T01:39:26;102127.28;;;7.12;100.00
69667;BME280;66534;52.370;4.832;2023-02-02T01:39:56;102133.38;;;7.12;100.00
69667;BME280;66534;52.370;4.832;2023-02-02T01:40:27;102123.84;;;7.07;100.00
69667;BME280;66534;52.370;4.832;2023-02-02T01:40:57;102123.91;;;6.97;100.00
69667;BME280;66534;52.370;4.832;2023-02-02T01:41:28;102116.16;;;6.91;100.00
69667;BME280;66534;52.370;4.832;2023-02-02T01:41:58;102122.25;;;6.92;100.00
69667;BME280;66534;52.370;4.832;2023-02-02T01:42:29;102121.41;;;6.87;100.00
69667;BME280;66534;52.370;4.832;2023-02-02T01:42:59;102120.50;;;6.94;100.00
69667;BME280;66534;52.370;4.832;2023-02-02T01:45:24;102121.41;;;6.90;100.00
69667;BME280;66534;52.370;4.832;2023-02-02T01:45:57;102122.25;;;6.90;100.00
69667;BME280;66534;52.370;4.832;2023-02-02T01:46:58;102124.00;;;6.90;100.00
69667;BME280;66534;52.370;4.832;2023-02-02T01:47:29;102124.88;;;6.90;100.00
69667;BME280;66534;52.370;4.832;2023-02-02T01:48:05;102126.53;;;6.97;100.00
69667;BME280;66534;52.370;4.832;2023-02-02T01:48:35;102126.56;;;6.94;100.00
69667;BME280;66534;52.370;4.832;2023-02-02T01:49:10;102123.16;;;6.85;100.00
69667;BME280;66534;52.370;4.832;2023-02-02T01:49:46;102124.00;;;6.90;100.00
69667;BME280;66534;52.370;4.832;2023-02-02T01:50:18;102119.69;;;6.84;100.00
69667;BME280;66534;52.370;4.832;2023-02-02T01:50:54;102127.47;;;6.90;100.00
69667;BME280;66534;52.370;4.832;2023-02-02T01:51:52;102126.63;;;6.85;100.00
69667;BME280;66534;52.370;4.832;2023-02-02T01:52:25;102130.13;;;6.81;100.00
69667;BME280;66534;52.370;4.832;2023-02-02T01:52:59;102129.25;;;6.84;100.00
69667;BME280;66534;52.370;4.832;2023-02-02T01:53:32;102121.50;;;6.76;100.00
69667;BME280;66534;52.370;4.832;2023-02-02T01:54:04;102127.59;;;6.75;100.00
69667;BME280;66534;52.370;4.832;2023-02-02T01:54:41;102128.44;;;6.79;100.00
69667;BME280;66534;52.370;4.832;2023-02-02T01:55:18;102123.19;;;6.80;100.00
69667;BME280;66534;52.370;4.832;2023-02-02T01:55:51;102131.91;;;6.82;100.00
69667;BME280;66534;52.370;4.832;2023-02-02T01:56:25;102121.47;;;6.81;100.00
69667;BME280;66534;52.370;4.832;2023-02-02T01:57:04;102134.47;;;6.84;100.00
69667;BME280;66534;52.370;4.832;2023-02-02T01:58:20;102129.34;;;6.74;100.00
69667;BME280;66534;52.370;4.832;2023-02-02T01:58:53;102120.66;;;6.74;100.00
69667;BME280;66534;52.370;4.832;2023-02-02T01:59:25;102124.09;;;6.79;100.00
69667;BME280;66534;52.370;4.832;2023-02-02T01:59:57;102122.38;;;6.78;100.00
69667;BME280;66534;52.370;4.832;2023-02-02T02:00:31;102131.09;;;6.74;100.00
69667;BME280;66534;52.370;4.832;2023-02-02T02:01:01;102127.59;;;6.75;100.00
69667;BME280;66534;52.370;4.832;2023-02-02T02:01:32;102127.56;;;6.80;100.00
69667;BME280;66534;52.370;4.832;2023-02-02T02:02:02;102127.56;;;6.77;100.00
69667;BME280;66534;52.370;4.832;2023-02-02T02:02:33;102133.69;;;6.76;100.00
69667;BME280;66534;52.370;4.832;2023-02-02T02:03:05;102125.00;;;6.75;100.00
69667;BME280;66534;52.370;4.832;2023-02-02T02:03:40;102120.63;;;6.76;100.00
69667;BME280;66534;52.370;4.832;2023-02-02T02:04:10;102123.19;;;6.80;100.00
69667;BME280;66534;52.370;4.832;2023-02-02T02:04:41;102118.00;;;6.80;100.00
69667;BME280;66534;52.370;4.832;2023-02-02T02:05:13;102117.13;;;6.83;100.00
69667;BME280;66534;52.370;4.832;2023-02-02T02:06:44;102119.72;;;6.80;100.00
69667;BME280;66534;52.370;4.832;2023-02-02T02:07:15;102123.22;;;6.79;100.00
69667;BME280;66534;52.370;4.832;2023-02-02T02:07:45;102115.38;;;6.80;100.00
69667;BME280;66534;52.370;4.832;2023-02-02T02:08:19;102109.31;;;6.80;100.00
69667;BME280;66534;52.370;4.832;2023-02-02T02:08:56;102120.56;;;6.85;100.00
69667;BME280;66534;52.370;4.832;2023-02-02T02:09:29;102116.19;;;6.85;100.00
69667;BME280;66534;52.370;4.832;2023-02-02T02:10:00;102118.78;;;6.88;100.00
69667;BME280;66534;52.370;4.832;2023-02-02T02:10:30;102106.66;;;6.84;100.00
69667;BME280;66534;52.370;4.832;2023-02-02T02:11:01;102117.97;;;6.83;100.00
69667;BME280;66534;52.370;4.832;2023-02-02T02:11:34;102109.25;;;6.86;100.00
69667;BME280;66534;52.370;4.832;2023-02-02T02:12:11;102112.72;;;6.88;100.00
69667;BME280;66534;52.370;4.832;2023-02-02T02:12:45;102108.34;;;6.88;100.00
69667;BME280;66534;52.370;4.832;2023-02-02T02:13:17;102112.69;;;6.89;100.00
69667;BME280;66534;52.370;4.832;2023-02-02T02:13:50;102110.06;;;6.89;100.00
69667;BME280;66534;52.370;4.832;2023-02-02T02:14:45;102107.47;;;6.94;100.00
69667;BME280;66534;52.370;4.832;2023-02-02T02:15:39;102112.66;;;6.92;100.00
69667;BME280;66534;52.370;4.832;2023-02-02T02:17:36;102114.41;;;6.95;100.00
69667;BME280;66534;52.370;4.832;2023-02-02T02:18:17;102102.13;;;7.02;100.00
69667;BME280;66534;52.370;4.832;2023-02-02T02:22:09;102099.50;;;7.08;100.00
69667;BME280;66534;52.370;4.832;2023-02-02T02:25:36;102116.03;;;7.07;100.00
69667;BME280;66534;52.370;4.832;2023-02-02T02:31:58;102093.34;;;7.13;100.00
69667;BME280;66534;52.370;4.832;2023-02-02T02:33:09;102089.88;;;7.13;100.00
69667;BME280;66534;52.370;4.832;2023-02-02T02:33:55;102098.56;;;7.12;100.00
69667;BME280;66534;52.370;4.832;2023-02-02T02:35:34;102094.19;;;7.15;100.00
69667;BME280;66534;52.370;4.832;2023-02-02T02:36:23;102102.88;;;7.16;100.00
69667;BME280;66534;52.370;4.832;2023-02-02T02:37:07;102093.34;;;7.13;100.00
69667;BME280;66534;52.370;4.832;2023-02-02T02:38:27;102092.44;;;7.16;100.00
69667;BME280;66534;52.370;4.832;2023-02-02T02:39:08;102091.53;;;7.20;100.00
69667;BME280;66534;52.370;4.832;2023-02-02T02:39:49;102100.19;;;7.22;100.00
69667;BME280;66534;52.370;4.832;2023-02-02T02:40:31;102090.63;;;7.22;100.00
69667;BME280;66534;52.370;4.832;2023-02-02T02:41:08;102095.84;;;7.24;100.00
69667;BME280;66534;52.370;4.832;2023-02-02T02:41:44;102105.38;;;7.28;100.00
69667;BME280;66534;52.370;4.832;2023-02-02T02:42:20;102101.03;;;7.26;100.00
69667;BME280;66534;52.370;4.832;2023-02-02T02:42:54;102101.09;;;7.21;100.00
69667;BME280;66534;52.370;4.832;2023-02-02T02:43:33;102099.38;;;7.20;100.00
69667;BME280;66534;52.370;4.832;2023-02-02T02:44:09;102107.16;;;7.21;100.00
69667;BME280;66534;52.370;4.832;2023-02-02T02:44:43;102103.66;;;7.22;100.00
69667;BME280;66534;52.370;4.832;2023-02-02T02:45:14;102106.28;;;7.24;100.00
69667;BME280;66534;52.370;4.832;2023-02-02T02:45:47;102097.53;;;7.27;100.00
69667;BME280;66534;52.370;4.832;2023-02-02T02:46:19;102101.06;;;7.24;100.00
69667;BME280;66534;52.370;4.832;2023-02-02T02:46:51;102101.00;;;7.29;100.00
69667;BME280;66534;52.370;4.832;2023-02-02T02:47:22;102093.22;;;7.26;100.00
69667;BME280;66534;52.370;4.832;2023-02-02T02:47:53;102101.91;;;7.28;100.00
69667;BME280;66534;52.370;4.832;2023-02-02T02:48:24;102093.19;;;7.29;100.00
69667;BME280;66534;52.370;4.832;2023-02-02T02:48:57;102101.84;;;7.31;100.00
69667;BME280;66534;52.370;4.832;2023-02-02T02:49:28;102094.94;;;7.28;100.00
69667;BME280;66534;52.370;4.832;2023-02-02T02:49:59;102091.47;;;7.28;100.00
69667;BME280;66534;52.370;4.832;2023-02-02T02:50:29;102103.59;;;7.30;100.00
69667;BME280;66534;52.370;4.832;2023-02-02T02:51:06;102095.75;;;7.30;100.00
69667;BME280;66534;52.370;4.832;2023-02-02T02:52:12;102103.63;;;7.29;100.00
69667;BME280;66534;52.370;4.832;2023-02-02T02:52:44;102102.72;;;7.30;100.00
69667;BME280;66534;52.370;4.832;2023-02-02T02:53:17;102112.34;;;7.26;100.00
69667;BME280;66534;52.370;4.832;2023-02-02T02:53:50;102107.13;;;7.26;100.00
69667;BME280;66534;52.370;4.832;2023-02-02T02:54:21;102107.97;;;7.30;100.00
69667;BME280;66534;52.370;4.832;2023-02-02T02:54:56;102108.81;;;7.32;100.00
69667;BME280;66534;52.370;4.832;2023-02-02T02:55:31;102104.47;;;7.31;100.00
69667;BME280;66534;52.370;4.832;2023-02-02T02:56:19;102106.28;;;7.24;100.00
69667;BME280;66534;52.370;4.832;2023-02-02T02:58:08;102106.16;;;7.35;100.00
69667;BME280;66534;52.370;4.832;2023-02-02T02:58:46;102110.53;;;7.33;100.00
69667;BME280;66534;52.370;4.832;2023-02-02T03:00:43;102125.34;;;7.31;100.00
69667;BME280;66534;52.370;4.832;2023-02-02T03:01:29;102122.69;;;7.34;100.00
69667;BME280;66534;52.370;4.832;2023-02-02T03:02:20;102118.34;;;7.34;100.00
69667;BME280;66534;52.370;4.832;2023-02-02T03:04:46;102127.03;;;7.35;100.00
69667;BME280;66534;52.370;4.832;2023-02-02T03:06:50;102132.22;;;7.39;100.00
69667;BME280;66534;52.370;4.832;2023-02-02T03:07:34;102120.91;;;7.40;100.00
69667;BME280;66534;52.370;4.832;2023-02-02T03:09:20;102128.72;;;7.42;100.00
69667;BME280;66534;52.370;4.832;2023-02-02T03:09:54;102125.22;;;7.43;100.00
69667;BME280;66534;52.370;4.832;2023-02-02T03:10:28;102119.16;;;7.39;100.00
69667;BME280;66534;52.370;4.832;2023-02-02T03:11:00;102119.19;;;7.38;100.00
69667;BME280;66534;52.370;4.832;2023-02-02T03:11:35;102133.94;;;7.39;100.00
69667;BME280;66534;52.370;4.832;2023-02-02T03:12:05;102128.72;;;7.39;100.00
69667;BME280;66534;52.370;4.832;2023-02-02T03:12:45;102120.00;;;7.43;100.00
69667;BME280;66534;52.370;4.832;2023-02-02T03:13:18;102131.31;;;7.42;100.00
69667;BME280;66534;52.370;4.832;2023-02-02T03:13:49;102127.00;;;7.41;100.00
69667;BME280;66534;52.370;4.832;2023-02-02T03:14:19;102140.03;;;7.41;100.00
69667;BME280;66534;52.370;4.832;2023-02-02T03:14:50;102112.22;;;7.40;100.00
69667;BME280;66534;52.370;4.832;2023-02-02T03:15:20;102130.50;;;7.40;100.00
69667;BME280;66534;52.370;4.832;2023-02-02T03:15:51;102120.03;;;7.41;100.00
69667;BME280;66534;52.370;4.832;2023-02-02T03:16:22;102135.72;;;7.40;100.00
69667;BME280;66534;52.370;4.832;2023-02-02T03:16:52;102127.81;;;7.44;100.00
69667;BME280;66534;52.370;4.832;2023-02-02T03:17:23;102128.69;;;7.43;100.00
69667;BME280;66534;52.370;4.832;2023-02-02T03:17:53;102126.97;;;7.42;100.00
69667;BME280;66534;52.370;4.832;2023-02-02T03:18:25;102126.94;;;7.45;100.00